SMRA00 UAOL 242100
AAXX 24211
01003 41015 82603 10023 20020 39982 49996 53002 72052 886//=
01006 46/// /0303 10001 20001 39979 49995 58003=
01008 41585 72504 10066 20038 39952 49987 57001 70222 875//=
01009 46/// /1107 10002 2//// 30002 40009 58012=
01010 26/// /1904 10087 20060 30098 40114 54001 333 60005=
01011 46/// /0917 10010 21001 39978 49988 57007=
01013 26/// /2702 10043 2//// 39978 49991 56006 333 60005=
01015 46/// /0901 10033 20029=
01016 46/// /1306 10008 20005 39977 49992 57005=
01017 46/// /2804 10041 20038 39984 49992 54001=
01020 46/// /1704 10016 20012 39981 49991 54003=
01023 21688 81001 10094 20044 30027 40120 57002 70222 8757/ 333 60005=
01024 46/// /0901 10064 20032 39969 49982 57003=
01025 47684 81907 10086 20044 30103 40115 57005 700//=
01028 41465 82409 10040 20029 30003 40023 53009 72162 886//=
01035 46/// ///// 10050 2////=
01037 46/// /0401 10085 20054 30096 40119 57003=
01042 46/// /2412 10043 20031=
01043 46/// /1703 10079 2////=
01049 26/// /2602 10099 20039 30115 40118 52005 333 60005=
01052 26/// /2205 10071 20041 30011 40109 53008 333 69985=
01058 26/// /2604 10078 20021 39662 40114 52006 333 60005=
01059 46/// /2402 10111 20032 30106 40115 50006=
01064 46/// /2104 10064 21001 39420 40119 52003=
01065 26/// /0901 10082 20057 39959 40118 52006 333 60005=
01074 46/// /2509 10080 20043 30086 40100 50010=
01076 26/// /2703 10079 20032 30077 40116 50007 333 60005=
01078 46/// /2711 10077 20036 30087 40097 50011=
01082 26/// ///// 10072 20055 30057 40124 50005 333 60005=
01083 46/// /2509 10082 20047 30087 40103 50012=
01086 46/// /2407 10072 20032 39924 40106 50013=
01088 46/// /2904 10077 20034 30069 40117 52009=
01089 46/// /2003 10097 20030 30018 40122 52008=
01091 26/// /0101 10058 20037 333 69915=
01098 26/// /2705 10079 20041 30097 40115 52015 333 60005=
01099 46/// /2605 10086 20035 30102 40118 51015=
01102 46/// ///// 10099 20093 30111 40130 55002=
01105 46/// /1802 10086 20072=
01107 46/// /1808 10096 20093 30090 40094 56010=
01112 46/// /2007 10097 20097 30130 40139 57001=
01116 46/// /1909 10101 20095 30104 40126 57001=
01121 46/// /1908 10100 20094 30107 40119 56006=
01122 26/// /1804 10120 20081 30043 40130 57002 333 60005=
01124 26/// ///// 10104 20096 333 69925=
01132 26/// /2202 10097 20080 39764 40145 57002 333 60005=
01133 46/// /1303 10122 20086=
01135 26/// /1602 10099 20091 39979 40128 55003 333 69935=
01136 46/// /2316 10084 20084=
01139 46/// /1809 10092 20088 30095 40100 57017=
01141 26/// /1605 10093 20087 30073 40103 57012 333 69925=
01143 46/// /0303 10090 20070=
01144 46/// /1204 10091 20085=
01146 26/// /1101 10096 20085 333 69935=
01147 26/// /2102 10091 20071 333 60005=
01148 46/// /0000 10099 20090=
01151 46/// /2601 10099 20089 30045 40130 57004=
01152 41280 80905 10096 20088 30097 40113 58012 72162 885//=
01158 26/// ///// 10094 20082 30112 40121 57004 333 69955=
01161 46/// /1705 10089 20081 30103 40114 57009=
01162 46/// ///// 10096 20075 30109 40113 57006=
01167 41580 81602 10096 20079 30107 40113 55007 76166 8652/=
01169 26/// ///// 10097 20089 30074 40119 58003 333 69945=
01180 46/// /1701 10086 20061 30062 40118 55004=
01183 46/// /1402 10089 20075 30091 40122 57005=
01192 26/// /2101 10071 20051 333 69965=
01198 26/// ///// 10079 20054 39875 40121 58003 333 60005=
01199 46/// /2402 10064 20023 39669 40128 52005=
01203 46/// /2015 10104 20102 30139 40188 53009=
01205 46/// /2315 10106 20103 30134 40179 51007=
01209 46/// /0701 10119 20100 30105 40194 50002=
01210 46/// /2508 10112 20112 30161 40187 52006=
01212 46/// /2314 10106 20095 30157 40175 53008=
01214 46/// /2506 10127 20078=
01217 46/// /2704 10127 20099 30174 40177 53006=
01220 46/// /2308 10056 20052=
01221 46/// ///// 10096 20065=
01223 46/// /2305 10110 20094 30098 40174 52005=
01224 26/// ///// 10129 20084 333 60005=
01225 46/// /2313 10105 20099 30158 40163 52006=
01227 26/// ///// 10100 20100 333 69945=
01228 46/// /2612 10105 20094 30150 40157 53003=
01229 46/// /2206 10079 2////=
01230 26/// /3301 10109 20097 333 60005=
01232 26/// /0000 10120 20109 30102 40180 53007 333 60005=
01233 46/// /2401 10118 20069=
01234 46/// /0402 10110 20105=
01238 41365 82103 10090 2//// 39055 40212 52005 70322 8572/=
01239 26/// /2207 10091 20062 333 60005=
01240 46/// /2313 10103 20097 30127 40146 54000=
01241 41275 82508 10109 20098 30155 40165 52002 72165 877//=
01242 46/// ///// 10104 20099=
01245 26/// /3003 10115 20084 39473 40162 53009 333 60005=
01250 46/// ///// 10120 20072=
01253 26/// /2901 10116 20111 333 69925=
01254 26/// /2801 10129 20113 333 69915=
01259 46/// /2113 10103 20097 30124 40147 57001=
01265 26/// /2302 10143 20078 39588 40149 53005 333 60005=
01270 26/// ///// 10111 20103 333 69995=
01271 27/44 93102 10114 20110 30153 40173 51010 753// 333 69965=
01272 26/// ///// 10110 20103 333 69945=
01273 46/// /0000 10114 20105 39975 40167 52009=
01277 46/// /2103 10118 20095=
01281 46/// /2303 10103 20092 39979 40151 57003=
01282 46/// /2210 10102 20102 30139 40145 57001=
01287 46/// ///// 10108 20080=
01288 46/// /3002 10120 20081 39427 40153 52003=
01290 46/// /2303 10106 20090 30149 40152 54000=
01293 46/// /3601 10119 20113 39962 40166 52006=
01304 46/// /2006 10112 20104 30178 40209 52003=
01308 26/// ///// 10108 20103 333 69955=
01310 46/// /1906 10107 20103 30199 40213 52003=
01311 47459 83302 10109 20099 30163 40225 52003 700//=
01314 26/// /0501 10117 20096 333 60005=
01315 26/// /3201 10120 20101 333 60005=
01319 26/// ///// 10110 20101 333 69935=
01320 46/// /3501 10122 20096 30132 40204 52007=
01321 26/// /1201 10105 20103 39952 40202 52006 333 69915=
01323 46/// /2002 10091 20088 39834 40217 52005=
01326 26/// ///// 10107 20099 333 60005=
01327 26/// /2803 10091 20085 39674 40219 52005 333 69915=
01332 26/// /2301 10114 20112 333 69945=
01336 26/// ///// 10103 20089 333 69915=
01338 46/// /2105 10117 20106 30145 40211 53005=
01344 26/// ///// 10091 20079 333 60005=
01345 26/// /0301 10075 20071 333 60005=
01346 26/// /3004 10062 20055 333 60005=
01347 46/// /2605 10101 20101 39618 40207 52004=
01350 26/// /3008 10060 20050 38811 40193 57002 333 60005=
01352 46/// /2907 10065 20064=
01355 26/// ///// 10123 20112 30201 40206 52004 333 60005=
01357 46/// /2904 10114 20065 39251 40176 52003=
01358 46/// ///// 10130 20066 39466 40167 54001=
01359 46/// /2102 10114 20067 39290 40181 57002=
01360 41585 82003 10115 20076 70282 888//=
01361 26/// /2603 10090 20059 39177 40185 52006 333 60005=
01362 46/// /2811 10051 20050 38099 40161 54000=
01363 46/// /2302 10104 20073 39259 40181 54000=
01364 26/// /2903 10090 20061 39094 40193 53005 333 60005=
01365 26/// /3104 10099 20055 333 60005=
01366 26/// /2905 10047 20046 38600 40198 52002 333 60005=
01367 46/// /0000 10145 20076 39741 40170 51005=
01368 46/// /3004 10103 20065 39227 40176 52004=
01370 46/// ///// 1//// 2////=
01373 46/// ///// 1//// 2////=
01374 26/// /3001 10140 20078 333 60005=
01375 46/// /3006 10088 20063=
01376 46/// /3002 10183 20077=
01378 46/// /3403 10175 20084 39865 40145 53007=
01380 46/// /2702 10093 20057=
01381 26/// ///// 10171 20087 333 60005=
01382 26/// ///// 10175 20091 333 60005=
01383 46/// /0204 10177 20093 39851 40151 53010=
01384 41989 82803 10201 20073 52003 70222 85038=
01385 26/// /2302 10175 20081 39887 40147 52003 333 60005=
01386 26/// ///// 10179 20081 333 60005=
01387 26/// ///// 10159 20086 333 60005=
01389 26/// /3303 10171 20084 39853 40151 52005 333 60005=
01392 46/// /2901 10162 20096 39928 40146 54000=
01400 41998 13407 10115 20101 40246 53003 70200 81070 22200 06123 10802 70008=
01403 21580 33407 10114 20095 30156 40225 52001 70121 83900 333 60005=
01406 46/// ///// 1//// 2////=
01408 46/// /3305 10113 20097 30191 40224 55001=
01411 46/// /3307 10117 20096 30191 40218 54000=
01412 26/// /3407 10099 20093 30186 40217 58001 333 60005=
01413 46/// /3503 10110 20096=
01414 46/// /3305 10115 2////=
01415 27566 83306 10120 20099 30208 40219 54000 700// 333 69915=
01416 26/// ///// 10118 20094 333 60005=
01417 26/// ///// 10128 20102 333 60005=
01418 26/// ///// 10115 2//// 333 60005=
01419 26/// /3402 10109 20081 333 60005=
01422 46/// ///// 1//// 2////=
01426 46/// /3112 10109 2////=
01427 26/// /3110 10104 20092 30171 40187 50002 333 60005=
01430 26/// ///// 10189 20095 333 60005=
01431 26/// /0103 10119 20088 39545 40195 54000 333 60005=
01434 46/// /2601 10114 20032 39240 40183 57003=
01436 46/// /3006 10139 20111=
01440 46/// /3007 10075 2//// 38941 40206 54001=
01442 26/// /3202 10173 20095 39927 40175 52011 333 60005=
01448 46/// /3406 10191 20107 30156 40165 52009=
01449 26/// /3002 10201 20088 333 60005=
01450 26/// /3408 10101 20063 39062 40179 50002 333 60005=
01452 26/// /3303 10202 20093 30145 40166 52008 333 60005=
01453 26/// /1801 10187 20075 333 60005=
01455 26/// /3403 10177 20072 39868 40166 51009 333 60005=
01460 46/// /2403 10183 2////=
01461 46/// /3507 10056 2//// 38194 40169 54000=
01462 26/// /0601 10156 20122 333 60005=
01463 26/// ///// 10171 20105 333 60005=
01464 26/// /0000 10170 20136 333 60005=
01465 46/// /3001 10167 2//// 30148 40163 52006=
01466 46/// /3001 10182 20111 30021 40149 52003=
01467 46/// /2002 10173 2//// 30156 40161 52004=
01468 46/// /1901 10165 20090=
01471 46/// /2903 10165 20080=
01473 46/// /2802 10193 20071 39958 40157 52010=
01477 26/// /3103 10190 20081 333 60005=
01478 46/// /2604 10167 2////=
01480 26/// /2602 10208 20081 333 60005=
01481 26/// /2502 10183 20077 30123 40154 50001 333 60005=
01482 46/// /2707 10169 20130 30141 40150 50001=
01484 46/// /0000 10154 20114 39997 40147 52002=
01486 26/// ///// 10175 20092 333 60005=
01490 46/// ///// 1//// 2////=
01492 21889 60101 10192 20079 30032 40145 52003 70122 83078 333 60005=
01494 27984 82303 10182 20079 30092 40154 52004 700// 333 60005=
01495 26/// /2703 10178 20137 30140 40152 50004 333 60005=
03008 41957 02711 10102 20095 30161 40234 52002 71000=
03017 45973 /2606 10112 20078 30208 40240 52004 333 55307 20210 8//99=
03026 45981 /2011 10121 20090 30218 40236 55000 333 55310 20273 8//99=
03063 45983 /2903 10147 20043 39966 40239 52010 333 55300 20048 8//99=
03066 45980 /0705 10125 20082 30233 40239 52006 333 55310 20186 8//99=
03075 45974 /1507 10112 20093 30199 40243 51002 333 8//99=
03091 45984 /1304 10119 20094 30166 40245 52003 333 55305 20129 8//99=
03100 45980 /1704 10109 20085 30237 40253 55000 333 55310 20243 8//99=
03111 46964 /3102 10129 20092 30242 40254 53004 333 8//99=
03134 45983 /2704 10148 20091 30178 40250 53005 333 55307 20145 8//99=
03136 45980 /2902 10139 20112 30221 40254 53004 333 55305 20128 8//99=
03166 45986 /2407 10162 20068 30174 40242 53006 333 55308 20135 8//99=
03171 45977 /0904 10126 20107 30229 40241 53016 333 55305 20130 8//99=
03204 42982 22102 10141 20113 30238 40257 53004 80001 333 55303 20095 82075=
03240 45964 /3302 10127 20108 30212 40240 53003 333 55303 20079 8//99=
03354 45987 /2203 10196 20068 30109 40248 53006 333 55300 20027 8//99=
03462 45983 /1703 10188 20116 30159 40246 53007 333 55300 20028 8//99=
03502 45980 /3402 10148 20120 30100 40260 53008 333 55305 20067 8//99=
03716 45984 /3403 10200 20062 30191 40249 53007 333 55301 20056 8//99=
03740 469// /0703 10185 20069 30079 40251 53008 333 55300 20022 8//99=
03772 45982 /2008 10198 20098 30221 40251 53014 333 55300 20022 88/75=
03796 46/// /0509 10113 20095 30116 40259 53005=
03803 45984 /0409 10152 20106 30214 40251 53002 333 8//99=
03808 42966 50404 10142 20135 30149 40255 53006 82031 333 55301 20063 82362 85075=
03827 45679 /0000 10149 20102 30194 40255 53007 333 81/49=
03840 45980 /2304 10156 20088 39955 40256 53010 333 8//99=
03882 45974 /2603 10131 20107 30194 40258 53008 333 55300 20000 8//99=
03894 42984 40807 10175 20090 40248 52006 80001 333 84075=
03917 45981 /0704 10177 20122 30171 40246 53004 333 55306 20155 8//99=
06011 27117 71405 10102 20097 30100 40168 57003 78186 333 55300 20162 69927 81/02 85/04 87/08=
06019 26/// /2809 10123 20111 333 55300 20011 6///7=
06030 25/81 /2805 10146 20121 30154 40169 54000 333 6///7=
06031 26/// /2503 10133 20114 333 55300 20011 6///7=
06041 25984 52908 10133 20121 30157 40163 52003 333 55300 20007 6///7 85/68=
06049 45/84 /3007 10131 20093 30067 40174 52007=
06052 27/59 /3217 10134 20115 30180 40184 54000 71010 333 6///7=
06058 25/63 03311 10137 20118 30187 40192 52002 333 55300 20018 6///7=
06060 25979 72706 10133 20113 30119 40181 52004 333 6///7 87/67=
06069 46/// ///// 30108 52007=
06070 25/84 /2803 10159 20099 30147 40177 52010 333 6///7=
06074 25980 72703 10144 20098 30111 40177 52012 333 6///7 87/69=
06079 25270 10109 10163 20157 30161 40166 52009 333 55300 20011 6///7 81/06=
06081 46/// /3319 10135 20121 30173 40194 52002=
06096 45466 73318 10137 20120 30180 40191 52006 333 55300 20000 81/11 87/69=
06108 46/// /2906 10123 20106 30132 40186 52009=
06119 25/71 02808 10136 20120 30160 40183 52008 333 6///7=
06120 22982 12804 10154 20138 30151 40176 52001 81070 333 6///7 81369=
06123 45/80 /3009 10140 20117 30180 40184 52012 333 55300 20004=
06124 45/73 /2810 10154 20129 30169 40177 52007=
06136 26/// /2305 10148 20130 333 55300 20000 6///7=
06138 46/// /2510 10147 20140 30174 40179 52006=
06141 25666 12306 10129 20115 30166 40177 52007 333 55300 20004 6///7 81/48=
06147 25/71 /2805 10138 20114 30168 40174 52006 333 6///7=
06149 26/// /2814 10157 20136 30171 40177 52006 333 55300 20000 6///7=
06151 46/// /2006 10150 20138 30169 40173 52005=
06156 25/83 02202 10148 20110 30154 40171 52009 333 55300 20000 6///7=
06159 25/76 /3314 10172 20154 30151 40170 52008 333 6///7=
06168 46/// /2304 10141 20121 30114 40166 52005=
06169 25/83 /2203 10169 20144 30151 40171 52011 333 6///7=
06174 25/83 /2704 10146 20114 30142 40168 52008 333 55300 20004 6///7=
06180 25/86 01901 10161 20107 30162 40169 52006 333 6///7=
06181 46/// /3101 10150 20109 30116 40167 52009=
06183 45/84 /3402 10167 20137 30149 40166 52010 333 91217=
06193 27871 72511 10154 20146 30149 40160 52002 78186 333 55300 20004 69917 81/59 83/61 87/62=
06400 45969 /9901 10138 20086 30249 40255 53002 333 81/70 87/74 91107 91205=
06407 42781 40204 10145 20083 30251 40257 55000 81531 333 81650 84071 91106 91205=
06418 46/// /3606 10159 20104 30236 40252 57001 333 91107 91206=
06428 45970 /3602 10143 20078 30207 40250 52005 333 81/72 91107 91205=
06431 46/// /3302 10152 20094 30238 40251 53001 333 91106 91203=
06432 45770 /0204 10152 20089 30176 40247 52007 333 83/50 91108 91206=
06434 46/// /3503 10147 20088 30230 40250 53005 333 91109 91206=
06438 46/// /3402 10149 20101 30244 40251 53004 333 91108 91205=
06447 46/// /3503 10152 20076 30116 40239 53006 333 91108 91205=
06449 42970 23403 10150 20104 30017 40242 53007 80001 333 82070 91107 91206=
06450 42583 73504 10155 20087 30230 40245 53005 875// 333 86627 91108 91206=
06451 42684 33602 10138 20090 30178 40244 53005 81532 333 81639 91108 91205=
06455 46/// /3601 10152 20105 39947 40228 53005 333 91105 91203=
06456 45670 /3503 10141 20099 39899 40237 53005 333 85/40 91106 91205=
06458 45770 /3403 10150 20090 30107 40242 53006 333 88/50 91106 91204=
06459 46/// /3403 10137 20105 30050 40243 53007 333 91107 91205=
06464 46/// /3502 10155 20102 30217 40245 53007 333 91106 91203=
06465 45670 /3403 10156 20096 30177 40240 53005 333 81/35 88/50 91107 91205=
06472 46/// /3602 10149 20094 39888 40240 53003 333 91107 91204=
06476 45583 20104 10129 20088 39580 40232 53002 333 82/32 91107 91205=
06477 46/// /3504 10166 20106 40239 333 91107 91204=
06478 42580 73502 10151 20111 30021 40236 53004 875// 333 82628 86642 91106 91205=
06479 45570 /3402 10157 20094 30167 40240 53006 333 88/28 91106 91204=
06490 45480 83502 10130 20094 39673 40234 53003 333 88/18 91107 91204=
06494 46/// /3401 10110 20090 39442 40230 53002 333 91105 91203=
06496 45470 /9901 10121 20096 39572 40235 53002 333 86/17 88/42 91105 91203=
06590 42680 83504 10152 20094 39781 40222 53007 8635/ 333 86640 91109 91207=
07002 22868 40806 10145 20093 30172 40254 53005 83041 333 60007 83357 90710 91115 92427 555 60005=
07003 24986 /0606 10148 20094 30229 40253 53007 700// 333 4//// 60007 90710 91110 555 60005=
07005 24/67 /0205 10138 20094 30163 40250 53011 700// 333 4/000 60007 90710 91111 555 60005=
07010 26/// /0306 10159 20089 30236 40255 53002 333 4//// 60007 90710 91110 555 60005=
07015 24786 /3607 10157 20091 30192 40249 53009 700// 333 4/000 60007 90710 91114 555 60005=
07020 22968 50906 10131 20110 30244 40254 53009 80004 333 60007 85068 90710 91107 555 60005=
07024 24982 /1003 10130 20083 30090 40255 53008 700// 333 4//// 60007 90710 91108 555 60005=
07027 24982 /0304 10149 20115 30167 40248 53007 700// 333 4//// 60007 90710 91107 555 60005=
07028 22970 60409 10154 20077 30122 40247 53007 86010 333 60007 86458 90710 91120 92428 555 60005=
07031 24986 /0405 10140 20080 30079 40251 53009 700// 333 4/000 60007 90710 91107 555 60005=
07037 24985 /3506 10152 20082 30064 40246 53010 700// 333 4/000 60007 90710 91109 555 60005=
07038 24985 /3607 10159 20106 30077 40242 53011 700// 333 4//// 60007 90710 91111 555 60005=
07040 26/// /0405 10174 20137 30202 40250 53008 333 4//// 60007 90710 91115 555 60005=
07046 24986 /0509 10145 20082 30140 40250 53008 700// 333 4/000 60007 90710 91114 555 60005=
07055 24966 /0108 10146 20096 30107 40240 53007 700// 333 4/000 60007 90710 91111 555 60005=
07057 24/70 /0206 10159 20098 30130 40235 53006 700// 333 4//// 60007 90710 91110 555 60005=
07061 24/70 /0206 10147 20111 30122 40240 53010 700// 333 4/000 60007 90710 91111 555 60005=
07072 24970 /0204 10130 20102 30114 40229 53007 700// 333 4/000 60007 90710 91106 555 60005=
07075 24670 /3102 10141 20101 30054 40231 53006 700// 333 4//// 60007 90710 91104 555 60005=
07093 24982 /0305 10156 20097 39913 40218 53008 700// 333 4/000 60007 90710 91110 555 60005=
07100 26/// /0720 10153 20111 30151 40233 53007 333 4//// 60007 90710 91127 555 60005=
07107 26/// /0812 1//// 2//// 3//// 4//// 333 4//// 6///7 90710 91117 555 6///5=
07110 24982 /0506 10155 20103 30122 40239 53009 700// 333 4/000 60007 90710 91112 555 60005=
07117 26/// /0704 10139 20118 30175 40245 53003 333 4//// 60007 90710 91108 555 60005=
07118 24981 /0302 10149 20113 30140 40244 53004 700// 333 4/000 60007 90710 91105 555 60005=
07120 24970 /3601 10144 20112 30082 40244 53004 700// 333 4//// 60007 90710 91105 555 60005=
07125 24978 /0406 10171 20102 30163 40241 53007 700// 333 4/000 60007 90710 91112 555 60005=
07130 24986 /0306 10191 20096 30186 40230 53009 700// 333 4/000 60007 90710 91116 555 60005=
07134 24970 /0106 10177 20103 30110 40229 53009 700// 333 4/000 60007 90710 91112 555 60005=
07139 24970 /0305 10162 20107 30063 40236 53011 700// 333 4/000 60007 90710 91109 555 60005=
07140 24984 /0105 10164 20091 30077 40228 52008 700// 333 4//// 60007 90710 91108 555 60005=
07143 24970 /0304 10168 20095 30046 40230 53006 700// 333 4/000 60007 90710 91108 555 60005=
07145 24970 /0304 10172 20091 30027 40233 53006 700// 333 4//// 60007 90710 91109 555 60005=
07146 24974 /0207 10177 20093 30041 40231 53007 700// 333 4/000 60007 90710 91110 555 60005=
07149 24984 /0306 10177 20093 30124 40231 53006 700// 333 4/000 60007 90710 91114 555 60005=
07150 24975 /3504 10179 20093 30175 40233 53008 700// 333 4/000 60007 90710 91109 555 60005=
07153 24970 /0104 10160 20101 30118 40228 53006 700// 333 4/000 60007 90710 91107 555 60005=
07156 24/70 /0307 10188 20093 30139 40231 53006 700// 333 4/000 60007 90710 91118 555 60005=
07157 22980 40106 10166 20100 30100 40233 53005 80001 333 60007 84076 90710 91112 93100 555 60005=
07168 24/70 /0105 10164 20089 30083 40223 53007 700// 333 4/000 60007 90710 91110 555 60005=
07169 24982 /3604 10162 20096 30056 40220 53008 700// 333 4//// 60007 90710 91108 555 60005=
07180 24985 /3505 10172 20083 39963 40214 53008 700// 333 4/000 60007 90710 91110 555 60005=
07181 24983 /3505 10150 20078 39812 40216 53006 700// 333 4//// 60007 90710 91107 555 60005=
07190 24975 83604 10155 20123 30028 40207 53005 700// 333 4/000 69907 90710 91105 555 69905=
07201 24985 /0607 10188 20098 30131 40232 53010 700// 333 4//// 60007 90710 91115 555 60005=
07203 22981 70415 10189 20117 80002 333 60007 90710 91121 92428 555 60005=
07205 24983 /0407 10172 20103 30178 40231 53009 700// 333 4/000 60007 90710 91113 555 60005=
07207 26/// /0312 10193 20121 30172 40223 53005 333 4//// 60007 90710 91119 555 60005=
07217 24986 /0304 10207 20108 30216 40220 53008 700// 333 4/000 60007 90710 91108 555 60005=
07222 24986 /0403 10212 20097 30186 40217 53008 700// 333 4/000 60007 90710 91109 555 60005=
07230 24/70 /0503 10186 20104 30167 40224 53009 700// 333 4/000 60007 90710 91107 555 60005=
07235 24970 /0404 10194 20098 30166 40228 53010 700// 333 4/000 60007 90710 91108 555 60005=
07240 24/70 /0504 10160 20092 30091 40225 53011 700// 333 4/000 69907 90710 91108 555 69905=
07245 24/58 /0406 10172 20078 30070 40224 52010 700// 333 4/000 60007 90710 91111 555 60005=
07247 24970 /0403 10172 20086 30120 40220 53011 700// 333 4//// 60007 90710 91106 555 60005=
07249 24972 /0204 10151 20097 30075 40224 53009 700// 333 4/000 60007 90710 91106 555 60005=
07255 24/70 /0205 10180 20080 30023 40219 53010 700// 333 4/000 60007 90710 91110 555 60005=
07257 24981 /0205 10162 20077 30008 40218 53010 700// 333 4//// 60007 90710 91107 555 60005=
07260 24970 /0103 10145 20075 30007 40218 53010 700// 333 4/000 60007 90710 91106 555 60005=
07266 24970 /3502 10157 20072 30039 40221 53007 700// 333 4/000 60007 90710 91106 555 60005=
07280 24986 /3509 10173 20056 39938 40205 51008 700// 333 4/000 60007 90710 91115 555 60005=
07283 24970 /3403 10149 20046 39666 40211 52005 700// 333 4//// 60007 90710 91110 555 60005=
07288 26/// /0304 10168 20092 39836 40199 50004 333 4//// 60007 90710 91109 555 60005=
07292 24783 /3101 10177 20098 39884 40203 52006 700// 333 4/000 60007 90710 91102 555 60005=
07296 24670 80902 10163 20090 39735 40203 52005 700// 333 4/000 60007 90710 91109 555 60005=
07299 22770 73104 10154 20091 39881 40203 51007 81434 333 60007 81656 87072 90710 91106 93100 555 60005=
07300 21980 40606 10195 20102 30176 40214 53008 702// 80002 333 60007 90710 91112 92428 555 60005=
07306 24986 /0405 10174 20096 30109 40215 53008 700// 333 4/000 60007 90710 91108 555 60005=
07314 22965 70409 10198 20130 30181 40208 53010 86018 333 60007 86460 90710 91114 555 60005=
07316 24986 /0508 10194 20090 30187 40208 53010 700// 333 4/000 60007 90710 91113 555 60005=
07330 24/70 /0406 10183 20088 30138 40210 51009 700// 333 4//// 60007 90710 91109 555 60005=
07335 24986 /0407 10178 20089 30073 40215 53010 700// 333 4/000 60007 90710 91111 555 60005=
07354 24986 /0506 10159 20100 30029 40216 51009 700// 333 4/000 60007 90710 91110 555 60005=
07361 24/70 /0000 10124 20085 39781 40214 52008 700// 333 4/000 69907 90710 91102 555 69905=
07374 24/70 /3603 10155 20092 39911 40207 53012 700// 333 4/000 60007 90710 91105 555 60005=
07379 24982 /0106 10173 20079 39919 40203 53011 700// 333 4/000 60007 90710 91112 555 60005=
07385 24/70 /3407 10184 20100 39940 40196 53009 700// 333 4/000 60007 90710 91111 555 60005=
07386 24982 /0207 10170 20099 39970 40200 51006 700// 333 4/000 60007 90710 91111 555 60005=
07412 24986 /0208 10208 20097 30164 40200 53011 700// 333 4//// 60007 90710 91113 555 60005=
07434 24982 /0308 10178 20066 39736 40203 53009 700// 333 4/000 60007 90710 91112 555 60005=
07438 24/70 /0205 10208 20109 30053 40190 53015 700// 333 4/000 60007 90710 91110 555 60005=
07460 24784 73504 10184 20089 39821 40200 53010 700// 333 4/000 60007 90710 91109 555 60005=
07471 24970 /2402 10129 20080 39251 4//// 53011 700// 333 4/000 60007 90710 91106 555 60005=
07475 24986 /1501 10153 20092 39737 40200 53012 700// 333 4/000 69907 90710 91106 555 69905=
07480 24986 /3506 10197 20077 39956 40187 53009 700// 333 4/000 60007 90710 91111 555 60005=
07481 22984 73508 10192 20079 39905 40185 51008 80002 333 60007 87076 90710 91117 93100 555 60005=
07482 24/70 /0305 10161 20095 39894 40190 51008 700// 333 4/000 60007 90710 91109 555 60005=
07486 24786 /3003 10182 20073 39737 40184 53009 700// 333 4/000 60007 90710 91110 555 60005=
07491 24776 /0209 10213 20116 39902 40173 53011 700// 333 4/000 69907 90710 91116 555 69905=
07497 26/// /3101 10164 20076 39187 48525 53017 333 4/000 60007 90710 91109 555 60005=
07500 22970 70409 10225 20146 30155 40188 53013 80006 333 60007 87266 90710 91116 555 60005 92438=
07503 24970 /0507 10232 20137 30139 40184 53012 700// 333 4//// 60007 90710 91115 555 60005=
07510 24985 /0309 10223 20123 30136 40192 53014 700// 333 4/000 60007 90710 91116 555 60005=
07524 24985 /3303 10213 20132 30097 40178 53010 700// 333 4/000 60007 90710 91108 555 60005=
07530 24986 /0104 10199 20122 30126 40187 53013 700// 333 4/000 60007 90710 91109 555 60005=
07535 24970 /3502 10198 20116 39881 40184 53014 700// 333 4/000 60007 90710 91105 555 60005=
07540 24/70 /3303 10227 20137 30048 40172 53008 700// 333 4/000 60007 90710 91106 555 60005=
07549 24982 /0705 10169 20091 39453 40184 51014 700// 333 4/000 60007 90710 91109 555 60005=
07554 24970 /0704 10145 20087 39139 4//// 53013 700// 333 4/000 60007 90710 91110 555 60005=
07558 24/70 /0212 10180 20101 39364 40170 53014 700// 333 4/000 60007 90710 91118 555 60005=
07560 24/70 /3607 10119 20086 38475 4//// 53005 700// 333 4//// 60007 90710 91109 555 60005=
07563 24986 /3410 10219 20087 30108 40164 53014 700// 333 4/000 60007 90710 91119 555 60005=
07570 24/70 /0304 10190 20100 39863 40188 53017 700// 333 4//// 60007 90710 91109 555 60005=
07577 24/70 /0108 10219 20069 30085 40171 53012 700// 333 4/000 60007 90710 91122 555 60005=
07579 24986 /3516 10219 20069 30100 40164 51014 700// 333 4//// 60007 90710 91126 555 60005=
07586 26/// /0701 10210 20105 30040 40164 53015 333 4//// 60007 90710 91110 555 60005=
07588 24870 /1006 10154 20131 39641 40175 53010 700// 333 4/000 60007 90710 91113 555 60005=
07591 24/70 /0000 10131 20106 39186 4//// 53013 700// 333 4//// 60007 90710 91103 555 60005=
07600 26/// /2704 10209 20175 30131 40181 53006 333 4//// 60007 90710 91106 555 60005=
07602 24983 /2503 10205 20177 30095 40178 53009 700// 333 4//// 60007 90710 91104 555 60005=
07603 26/// /0604 10231 20136 30140 40176 53014 333 4/000 60007 90710 91108 555 60005=
07607 24985 /0205 10187 20133 30111 40181 53011 700// 333 4/001 60007 90710 91106 555 60005=
07610 24984 /0602 10217 20136 39964 40176 53011 700// 333 4/000 60007 90710 91109 555 60005=
07621 24985 /2104 10181 20146 39762 40183 53012 700// 333 4/000 60007 90710 91105 555 60005=
07622 24/70 /2001 10175 20130 30029 40180 53011 700// 333 4/000 60007 90710 91102 555 60005=
07627 24970 /0000 10169 20130 39706 40187 53013 700// 333 4/000 60007 90710 91103 555 60005=
07630 24969 /3105 10220 20125 39999 40173 53009 700// 333 4/000 60007 90710 91110 555 60005=
07632 24/70 /0000 10202 20117 39969 40168 53008 700// 333 4/000 60007 90710 91103 555 60005=
07635 24968 /2703 10195 20115 30021 40170 53012 700// 333 4/000 60007 90710 91105 555 60005=
07638 24880 /0802 10202 20141 30148 40167 53014 700// 333 4/000 60007 90710 91105 555 60005=
07643 24985 81303 10221 20166 30161 40170 52020 700// 333 4//// 60007 90710 91105 555 60005=
07646 24886 80308 10226 20097 30045 40167 53014 700// 333 4//// 60007 90710 91115 555 60005=
07647 24986 /2304 10215 20118 30137 40165 51015 700// 333 4//// 60007 90710 91112 555 60005=
07648 24986 /2107 10218 20126 30095 40164 51013 700// 333 4//// 60007 90710 91110 555 60005=
07650 24981 /2203 10210 20146 30127 40164 52011 700// 333 4/000 60007 90710 91109 555 60005=
07661 26/// /0606 10190 20171 30017 40161 55000 333 4//// 69927 90710 91115 555 60005=
07667 24970 /3305 10185 20168 30159 40164 55001 700// 333 4//// 60027 90710 91109 555 60005=
07675 24/70 /2002 10172 20162 30070 40167 51014 700// 333 4/000 69927 90710 91104 555 60005=
07684 24986 /0103 10168 20151 30160 40165 53007 700// 333 4//// 60007 90710 91107 555 60005=
07690 22/82 13308 10196 20142 30135 40166 53011 80002 333 60007 81066 90710 91114 555 60005=
07747 24986 /0000 10213 20122 30115 40166 53011 700// 333 4/000 60007 90710 91105 555 60005=
07749 26/// /1804 10239 20125 30065 40164 53009 333 4//// 60007 90710 91108 555 60005=
07753 26/// /2207 10211 20181 39986 40154 53005 333 4//// 60007 90710 91112 555 60005=
07754 24682 /2003 10191 20158 30091 40159 53009 700// 333 4//// 60007 90710 91106 555 60005=
07761 24983 /0505 10176 20150 30150 40161 53001 700// 333 4/000 60057 90710 91107 555 60005=
07765 24986 /2906 10176 20125 30135 40155 53006 700// 333 4//// 60007 90710 91113 555 60005=
07775 26/// /3308 10205 20127 30065 40151 53001 333 4//// 60007 90710 91112 555 60005=
07780 24975 /0104 10168 20129 30129 40156 53001 700// 333 4//// 60007 90710 91109 555 60005=
07785 26/// /0604 10206 20164 30029 40160 53008 333 4//// 60007 90710 91106 555 60005=
07790 24986 /2305 10207 20150 30141 40155 53006 700// 333 4/000 60007 90710 91108 555 60005=
08554 22965 03104 10225 20157 30140 40149 52006 80000 333 60002=



SMUS00 KWBC 242100
AAXX 24214